sensor_id;sensor_type;location;lat;lon;timestamp;P1;durP1;ratioP1;P2;durP2;ratioP2
1701;SDS011;848;48.354;10.064;2023-05-29T00:01:09;14.45;;;5.32;;
1701;SDS011;848;48.354;10.064;2023-05-29T00:03:36;12.20;;;5.50;;
1701;SDS011;848;48.354;10.064;2023-05-29T00:06:03;11.10;;;4.95;;
1701;SDS011;848;48.354;10.064;2023-05-29T00:08:32;11.43;;;5.10;;
1701;SDS011;848;48.354;10.064;2023-05-29T00:10:58;12.07;;;4.57;;
1701;SDS011;848;48.354;10.064;2023-05-29T00:13:25;14.15;;;5.75;;
1701;SDS011;848;48.354;10.064;2023-05-29T00:15:52;13.45;;;5.40;;
1701;SDS011;848;48.354;10.064;2023-05-29T00:18:21;14.98;;;5.22;;
1701;SDS011;848;48.354;10.064;2023-05-29T00:20:47;14.07;;;5.15;;
1701;SDS011;848;48.354;10.064;2023-05-29T00:23:14;10.40;;;4.60;;
1701;SDS011;848;48.354;10.064;2023-05-29T00:25:41;11.63;;;4.70;;
1701;SDS011;848;48.354;10.064;2023-05-29T00:28:09;11.95;;;4.55;;
1701;SDS011;848;48.354;10.064;2023-05-29T00:30:37;12.40;;;4.72;;
1701;SDS011;848;48.354;10.064;2023-05-29T00:33:04;12.45;;;5.47;;
1701;SDS011;848;48.354;10.064;2023-05-29T00:35:32;11.43;;;5.00;;
1701;SDS011;848;48.354;10.064;2023-05-29T00:37:59;11.02;;;4.85;;
1701;SDS011;848;48.354;10.064;2023-05-29T00:40:26;14.32;;;5.57;;
1701;SDS011;848;48.354;10.064;2023-05-29T00:42:53;11.02;;;4.47;;
1701;SDS011;848;48.354;10.064;2023-05-29T00:45:20;12.88;;;4.28;;
1701;SDS011;848;48.354;10.064;2023-05-29T00:47:47;10.70;;;4.85;;
1701;SDS011;848;48.354;10.064;2023-05-29T00:50:14;10.95;;;5.28;;
1701;SDS011;848;48.354;10.064;2023-05-29T00:52:42;11.80;;;4.35;;
1701;SDS011;848;48.354;10.064;2023-05-29T00:55:10;11.65;;;5.22;;
1701;SDS011;848;48.354;10.064;2023-05-29T00:57:38;10.30;;;5.10;;
1701;SDS011;848;48.354;10.064;2023-05-29T01:00:06;11.68;;;4.80;;
1701;SDS011;848;48.354;10.064;2023-05-29T01:02:39;15.80;;;5.72;;
1701;SDS011;848;48.354;10.064;2023-05-29T01:05:09;11.35;;;4.70;;
1701;SDS011;848;48.354;10.064;2023-05-29T01:07:36;13.30;;;5.45;;
1701;SDS011;848;48.354;10.064;2023-05-29T01:10:05;10.05;;;4.40;;
1701;SDS011;848;48.354;10.064;2023-05-29T01:12:36;13.73;;;6.07;;
1701;SDS011;848;48.354;10.064;2023-05-29T01:15:18;10.30;;;4.55;;
1701;SDS011;848;48.354;10.064;2023-05-29T01:18:01;10.88;;;5.35;;
1701;SDS011;848;48.354;10.064;2023-05-29T01:20:47;13.25;;;5.55;;
1701;SDS011;848;48.354;10.064;2023-05-29T01:23:34;12.50;;;4.80;;
1701;SDS011;848;48.354;10.064;2023-05-29T01:26:11;11.88;;;5.15;;
1701;SDS011;848;48.354;10.064;2023-05-29T01:28:52;10.82;;;4.80;;
1701;SDS011;848;48.354;10.064;2023-05-29T01:31:22;12.75;;;5.35;;
1701;SDS011;848;48.354;10.064;2023-05-29T01:33:51;12.23;;;5.93;;
1701;SDS011;848;48.354;10.064;2023-05-29T01:36:19;10.40;;;4.90;;
1701;SDS011;848;48.354;10.064;2023-05-29T01:38:46;11.07;;;5.00;;
1701;SDS011;848;48.354;10.064;2023-05-29T01:41:13;10.77;;;4.75;;
1701;SDS011;848;48.354;10.064;2023-05-29T01:43:41;10.57;;;5.00;;
1701;SDS011;848;48.354;10.064;2023-05-29T01:46:10;9.50;;;4.57;;
1701;SDS011;848;48.354;10.064;2023-05-29T01:48:38;11.65;;;5.15;;
1701;SDS011;848;48.354;10.064;2023-05-29T01:51:06;10.85;;;5.50;;
1701;SDS011;848;48.354;10.064;2023-05-29T01:53:33;12.00;;;5.65;;
1701;SDS011;848;48.354;10.064;2023-05-29T01:56:00;10.13;;;4.50;;
1701;SDS011;848;48.354;10.064;2023-05-29T01:58:27;9.27;;;4.03;;
1701;SDS011;848;48.354;10.064;2023-05-29T02:00:55;11.65;;;5.20;;
1701;SDS011;848;48.354;10.064;2023-05-29T02:03:24;11.80;;;4.82;;
1701;SDS011;848;48.354;10.064;2023-05-29T02:05:54;11.88;;;5.70;;
1701;SDS011;848;48.354;10.064;2023-05-29T02:08:21;10.60;;;4.10;;
1701;SDS011;848;48.354;10.064;2023-05-29T02:10:48;10.80;;;4.10;;
1701;SDS011;848;48.354;10.064;2023-05-29T02:13:15;10.00;;;4.57;;
1701;SDS011;848;48.354;10.064;2023-05-29T02:15:42;11.38;;;5.35;;
1701;SDS011;848;48.354;10.064;2023-05-29T02:18:10;9.77;;;4.90;;
1701;SDS011;848;48.354;10.064;2023-05-29T02:20:40;10.30;;;4.35;;
1701;SDS011;848;48.354;10.064;2023-05-29T02:23:07;11.18;;;4.35;;
1701;SDS011;848;48.354;10.064;2023-05-29T02:25:35;10.88;;;4.90;;
1701;SDS011;848;48.354;10.064;2023-05-29T02:28:02;10.27;;;4.53;;
1701;SDS011;848;48.354;10.064;2023-05-29T02:30:29;10.07;;;4.70;;
1701;SDS011;848;48.354;10.064;2023-05-29T02:32:56;11.35;;;4.90;;
1701;SDS011;848;48.354;10.064;2023-05-29T02:35:23;9.43;;;4.28;;
1701;SDS011;848;48.354;10.064;2023-05-29T02:37:52;13.38;;;4.85;;
1701;SDS011;848;48.354;10.064;2023-05-29T02:40:19;15.18;;;5.25;;
1701;SDS011;848;48.354;10.064;2023-05-29T02:42:46;11.05;;;4.63;;
1701;SDS011;848;48.354;10.064;2023-05-29T02:45:13;10.57;;;5.40;;
1701;SDS011;848;48.354;10.064;2023-05-29T02:47:40;8.85;;;3.78;;
1701;SDS011;848;48.354;10.064;2023-05-29T02:50:07;11.10;;;5.05;;
1701;SDS011;848;48.354;10.064;2023-05-29T02:52:35;12.15;;;5.10;;
1701;SDS011;848;48.354;10.064;2023-05-29T02:55:04;12.23;;;5.40;;
1701;SDS011;848;48.354;10.064;2023-05-29T02:57:31;11.75;;;4.57;;
1701;SDS011;848;48.354;10.064;2023-05-29T02:59:58;12.77;;;5.10;;
1701;SDS011;848;48.354;10.064;2023-05-29T03:02:25;10.48;;;4.72;;
1701;SDS011;848;48.354;10.064;2023-05-29T03:04:52;10.98;;;4.40;;
1701;SDS011;848;48.354;10.064;2023-05-29T03:07:19;9.88;;;4.45;;
1701;SDS011;848;48.354;10.064;2023-05-29T03:09:46;10.23;;;4.90;;
1701;SDS011;848;48.354;10.064;2023-05-29T03:12:14;11.73;;;4.68;;
1701;SDS011;848;48.354;10.064;2023-05-29T03:14:43;10.38;;;4.32;;
1701;SDS011;848;48.354;10.064;2023-05-29T03:17:10;11.32;;;5.35;;
1701;SDS011;848;48.354;10.064;2023-05-29T03:19:37;11.38;;;4.55;;
1701;SDS011;848;48.354;10.064;2023-05-29T03:22:04;10.13;;;4.65;;
1701;SDS011;848;48.354;10.064;2023-05-29T03:24:31;13.10;;;4.95;;
1701;SDS011;848;48.354;10.064;2023-05-29T03:27:28;10.43;;;4.47;;
1701;SDS011;848;48.354;10.064;2023-05-29T03:29:55;10.13;;;4.60;;
1701;SDS011;848;48.354;10.064;2023-05-29T03:32:23;10.90;;;4.25;;
1701;SDS011;848;48.354;10.064;2023-05-29T03:34:49;10.75;;;4.55;;
1701;SDS011;848;48.354;10.064;2023-05-29T03:37:17;9.95;;;4.35;;
1701;SDS011;848;48.354;10.064;2023-05-29T03:39:43;13.15;;;5.43;;
1701;SDS011;848;48.354;10.064;2023-05-29T03:42:10;11.48;;;4.35;;
1701;SDS011;848;48.354;10.064;2023-05-29T03:44:40;14.50;;;5.15;;
1701;SDS011;848;48.354;10.064;2023-05-29T03:47:07;9.95;;;4.38;;
1701;SDS011;848;48.354;10.064;2023-05-29T03:49:34;11.95;;;5.18;;
1701;SDS011;848;48.354;10.064;2023-05-29T03:52:01;11.70;;;5.10;;
1701;SDS011;848;48.354;10.064;2023-05-29T03:54:28;11.38;;;4.07;;
1701;SDS011;848;48.354;10.064;2023-05-29T03:56:55;10.88;;;4.85;;
1701;SDS011;848;48.354;10.064;2023-05-29T03:59:22;10.25;;;4.35;;
1701;SDS011;848;48.354;10.064;2023-05-29T04:01:50;9.27;;;4.50;;
1701;SDS011;848;48.354;10.064;2023-05-29T04:04:17;11.43;;;4.35;;
1701;SDS011;848;48.354;10.064;2023-05-29T04:06:44;10.48;;;4.55;;
1701;SDS011;848;48.354;10.064;2023-05-29T04:09:11;11.25;;;4.75;;
1701;SDS011;848;48.354;10.064;2023-05-29T04:11:38;12.25;;;4.70;;
1701;SDS011;848;48.354;10.064;2023-05-29T04:14:06;11.80;;;4.88;;
1701;SDS011;848;48.354;10.064;2023-05-29T04:16:33;12.10;;;4.38;;
1701;SDS011;848;48.354;10.064;2023-05-29T04:19:01;9.65;;;4.47;;
1701;SDS011;848;48.354;10.064;2023-05-29T04:21:28;10.55;;;4.68;;
1701;SDS011;848;48.354;10.064;2023-05-29T04:23:57;12.65;;;4.57;;
1701;SDS011;848;48.354;10.064;2023-05-29T04:26:24;10.68;;;4.30;;
1701;SDS011;848;48.354;10.064;2023-05-29T04:28:51;11.07;;;4.53;;
1701;SDS011;848;48.354;10.064;2023-05-29T04:31:22;9.52;;;3.92;;
1701;SDS011;848;48.354;10.064;2023-05-29T04:33:50;12.93;;;4.25;;
1701;SDS011;848;48.354;10.064;2023-05-29T04:36:20;9.73;;;4.50;;
1701;SDS011;848;48.354;10.064;2023-05-29T04:38:50;11.43;;;4.88;;
1701;SDS011;848;48.354;10.064;2023-05-29T04:41:18;11.85;;;4.82;;
1701;SDS011;848;48.354;10.064;2023-05-29T04:43:48;9.43;;;3.92;;
1701;SDS011;848;48.354;10.064;2023-05-29T04:46:16;10.32;;;4.53;;
1701;SDS011;848;48.354;10.064;2023-05-29T04:48:43;11.63;;;4.90;;
1701;SDS011;848;48.354;10.064;2023-05-29T04:51:11;11.70;;;5.15;;
1701;SDS011;848;48.354;10.064;2023-05-29T04:53:39;13.75;;;5.50;;
1701;SDS011;848;48.354;10.064;2023-05-29T04:56:07;12.45;;;5.57;;
1701;SDS011;848;48.354;10.064;2023-05-29T04:58:34;12.98;;;6.13;;
1701;SDS011;848;48.354;10.064;2023-05-29T05:01:01;11.15;;;4.80;;
1701;SDS011;848;48.354;10.064;2023-05-29T05:03:28;13.05;;;5.05;;
1701;SDS011;848;48.354;10.064;2023-05-29T05:05:58;14.52;;;4.40;;
1701;SDS011;848;48.354;10.064;2023-05-29T05:08:27;10.95;;;3.85;;
1701;SDS011;848;48.354;10.064;2023-05-29T05:10:55;17.17;;;5.13;;
1701;SDS011;848;48.354;10.064;2023-05-29T05:13:23;11.30;;;5.03;;
1701;SDS011;848;48.354;10.064;2023-05-29T05:15:50;10.48;;;4.53;;
1701;SDS011;848;48.354;10.064;2023-05-29T05:18:17;19.27;;;5.57;;
1701;SDS011;848;48.354;10.064;2023-05-29T05:20:43;16.45;;;4.80;;
1701;SDS011;848;48.354;10.064;2023-05-29T05:23:11;12.38;;;4.80;;
1701;SDS011;848;48.354;10.064;2023-05-29T05:25:38;28.75;;;13.63;;
1701;SDS011;848;48.354;10.064;2023-05-29T05:28:07;18.30;;;7.65;;
1701;SDS011;848;48.354;10.064;2023-05-29T05:30:34;13.07;;;5.20;;
1701;SDS011;848;48.354;10.064;2023-05-29T05:33:01;13.25;;;5.35;;
1701;SDS011;848;48.354;10.064;2023-05-29T05:35:28;12.38;;;5.65;;
1701;SDS011;848;48.354;10.064;2023-05-29T05:37:56;12.50;;;5.03;;
1701;SDS011;848;48.354;10.064;2023-05-29T05:40:23;11.95;;;4.75;;
1701;SDS011;848;48.354;10.064;2023-05-29T05:42:51;10.93;;;4.78;;
1701;SDS011;848;48.354;10.064;2023-05-29T05:45:19;11.57;;;4.68;;
1701;SDS011;848;48.354;10.064;2023-05-29T05:47:46;11.18;;;5.43;;
1701;SDS011;848;48.354;10.064;2023-05-29T05:50:13;23.05;;;5.57;;
1701;SDS011;848;48.354;10.064;2023-05-29T05:52:40;14.52;;;5.13;;
1701;SDS011;848;48.354;10.064;2023-05-29T05:55:07;11.57;;;4.78;;
1701;SDS011;848;48.354;10.064;2023-05-29T05:57:34;11.63;;;5.40;;
1701;SDS011;848;48.354;10.064;2023-05-29T06:00:02;12.30;;;5.13;;
1701;SDS011;848;48.354;10.064;2023-05-29T06:02:34;9.82;;;4.82;;
1701;SDS011;848;48.354;10.064;2023-05-29T06:05:01;10.18;;;4.53;;
1701;SDS011;848;48.354;10.064;2023-05-29T06:07:29;12.48;;;5.35;;
1701;SDS011;848;48.354;10.064;2023-05-29T06:09:56;14.98;;;5.45;;
1701;SDS011;848;48.354;10.064;2023-05-29T06:12:22;10.02;;;4.72;;
1701;SDS011;848;48.354;10.064;2023-05-29T06:14:49;17.42;;;4.90;;
1701;SDS011;848;48.354;10.064;2023-05-29T06:17:16;11.70;;;5.45;;
1701;SDS011;848;48.354;10.064;2023-05-29T06:19:45;15.27;;;5.70;;
1701;SDS011;848;48.354;10.064;2023-05-29T06:22:12;10.60;;;4.95;;
1701;SDS011;848;48.354;10.064;2023-05-29T06:24:40;12.07;;;5.38;;
1701;SDS011;848;48.354;10.064;2023-05-29T06:27:07;11.48;;;6.10;;
1701;SDS011;848;48.354;10.064;2023-05-29T06:29:34;14.07;;;6.33;;
1701;SDS011;848;48.354;10.064;2023-05-29T06:32:00;12.57;;;5.80;;
1701;SDS011;848;48.354;10.064;2023-05-29T06:34:27;11.40;;;5.73;;
1701;SDS011;848;48.354;10.064;2023-05-29T06:36:56;13.07;;;6.07;;
1701;SDS011;848;48.354;10.064;2023-05-29T06:39:23;9.80;;;5.00;;
1701;SDS011;848;48.354;10.064;2023-05-29T06:41:50;10.17;;;5.43;;
1701;SDS011;848;48.354;10.064;2023-05-29T06:44:17;10.43;;;5.47;;
1701;SDS011;848;48.354;10.064;2023-05-29T06:46:44;11.83;;;6.67;;
1701;SDS011;848;48.354;10.064;2023-05-29T06:49:10;11.20;;;6.13;;
1701;SDS011;848;48.354;10.064;2023-05-29T06:51:37;11.67;;;5.40;;
1701;SDS011;848;48.354;10.064;2023-05-29T06:54:06;12.77;;;5.57;;
1701;SDS011;848;48.354;10.064;2023-05-29T06:56:33;11.73;;;5.60;;
1701;SDS011;848;48.354;10.064;2023-05-29T06:58:59;10.37;;;5.90;;
1701;SDS011;848;48.354;10.064;2023-05-29T07:01:26;12.90;;;5.90;;
1701;SDS011;848;48.354;10.064;2023-05-29T07:03:53;11.53;;;5.87;;
1701;SDS011;848;48.354;10.064;2023-05-29T07:06:21;15.03;;;6.20;;
1701;SDS011;848;48.354;10.064;2023-05-29T07:08:48;15.73;;;6.97;;
1701;SDS011;848;48.354;10.064;2023-05-29T07:11:16;11.63;;;6.07;;
1701;SDS011;848;48.354;10.064;2023-05-29T07:13:43;10.30;;;6.20;;
1701;SDS011;848;48.354;10.064;2023-05-29T07:16:10;11.10;;;6.27;;
1701;SDS011;848;48.354;10.064;2023-05-29T07:18:37;12.97;;;6.30;;
1701;SDS011;848;48.354;10.064;2023-05-29T07:21:04;10.17;;;5.20;;
1701;SDS011;848;48.354;10.064;2023-05-29T07:23:31;11.07;;;5.77;;
1701;SDS011;848;48.354;10.064;2023-05-29T07:25:58;11.00;;;6.13;;
1701;SDS011;848;48.354;10.064;2023-05-29T07:28:26;14.23;;;5.40;;
1701;SDS011;848;48.354;10.064;2023-05-29T07:30:53;10.53;;;5.43;;
1701;SDS011;848;48.354;10.064;2023-05-29T07:33:20;11.07;;;5.70;;
1701;SDS011;848;48.354;10.064;2023-05-29T07:35:49;10.47;;;6.37;;
1701;SDS011;848;48.354;10.064;2023-05-29T07:38:16;11.10;;;6.20;;
1701;SDS011;848;48.354;10.064;2023-05-29T07:40:43;11.67;;;5.77;;
1701;SDS011;848;48.354;10.064;2023-05-29T07:43:10;11.60;;;5.70;;
1701;SDS011;848;48.354;10.064;2023-05-29T07:45:39;10.10;;;5.27;;
1701;SDS011;848;48.354;10.064;2023-05-29T07:48:05;11.63;;;5.77;;
1701;SDS011;848;48.354;10.064;2023-05-29T07:50:32;11.80;;;5.97;;
1701;SDS011;848;48.354;10.064;2023-05-29T07:53:00;16.83;;;6.90;;
1701;SDS011;848;48.354;10.064;2023-05-29T07:55:26;11.17;;;6.07;;
1701;SDS011;848;48.354;10.064;2023-05-29T07:57:53;11.80;;;5.73;;
1701;SDS011;848;48.354;10.064;2023-05-29T08:00:20;11.70;;;5.70;;
1701;SDS011;848;48.354;10.064;2023-05-29T08:02:49;12.80;;;5.63;;
1701;SDS011;848;48.354;10.064;2023-05-29T08:05:17;12.70;;;4.97;;
1701;SDS011;848;48.354;10.064;2023-05-29T08:07:44;10.57;;;5.57;;
1701;SDS011;848;48.354;10.064;2023-05-29T08:10:12;9.63;;;5.03;;
1701;SDS011;848;48.354;10.064;2023-05-29T08:12:38;16.37;;;5.97;;
1701;SDS011;848;48.354;10.064;2023-05-29T08:15:06;9.80;;;5.47;;
1701;SDS011;848;48.354;10.064;2023-05-29T08:17:33;10.57;;;5.40;;
1701;SDS011;848;48.354;10.064;2023-05-29T08:20:02;10.93;;;5.10;;
1701;SDS011;848;48.354;10.064;2023-05-29T08:22:32;9.90;;;4.83;;
1701;SDS011;848;48.354;10.064;2023-05-29T08:24:59;10.07;;;4.97;;
1701;SDS011;848;48.354;10.064;2023-05-29T08:27:26;11.50;;;5.40;;
1701;SDS011;848;48.354;10.064;2023-05-29T08:29:53;12.00;;;5.50;;
1701;SDS011;848;48.354;10.064;2023-05-29T08:32:20;10.13;;;4.80;;
1701;SDS011;848;48.354;10.064;2023-05-29T08:34:47;10.30;;;5.63;;
1701;SDS011;848;48.354;10.064;2023-05-29T08:37:16;12.10;;;4.80;;
1701;SDS011;848;48.354;10.064;2023-05-29T08:39:45;9.70;;;4.70;;
1701;SDS011;848;48.354;10.064;2023-05-29T08:42:12;9.80;;;4.60;;
1701;SDS011;848;48.354;10.064;2023-05-29T08:44:43;11.03;;;5.57;;
1701;SDS011;848;48.354;10.064;2023-05-29T08:47:14;9.47;;;5.20;;
1701;SDS011;848;48.354;10.064;2023-05-29T08:49:45;11.23;;;5.33;;
1701;SDS011;848;48.354;10.064;2023-05-29T08:52:22;12.43;;;5.97;;
1701;SDS011;848;48.354;10.064;2023-05-29T08:54:50;10.90;;;4.90;;
1701;SDS011;848;48.354;10.064;2023-05-29T08:57:18;9.60;;;4.73;;
1701;SDS011;848;48.354;10.064;2023-05-29T08:59:46;10.70;;;5.30;;
1701;SDS011;848;48.354;10.064;2023-05-29T09:02:17;10.40;;;4.83;;
1701;SDS011;848;48.354;10.064;2023-05-29T09:04:45;9.10;;;4.57;;
1701;SDS011;848;48.354;10.064;2023-05-29T09:07:14;10.63;;;5.03;;
1701;SDS011;848;48.354;10.064;2023-05-29T09:09:42;9.10;;;4.40;;
1701;SDS011;848;48.354;10.064;2023-05-29T09:12:09;9.80;;;4.77;;
1701;SDS011;848;48.354;10.064;2023-05-29T09:14:37;10.67;;;4.80;;
1701;SDS011;848;48.354;10.064;2023-05-29T09:17:05;8.50;;;4.20;;
1701;SDS011;848;48.354;10.064;2023-05-29T09:19:33;11.90;;;5.03;;
1701;SDS011;848;48.354;10.064;2023-05-29T09:22:01;11.00;;;4.17;;
1701;SDS011;848;48.354;10.064;2023-05-29T09:24:29;10.90;;;5.33;;
1701;SDS011;848;48.354;10.064;2023-05-29T09:27:00;11.27;;;4.10;;
1701;SDS011;848;48.354;10.064;2023-05-29T09:29:30;9.20;;;4.60;;
1701;SDS011;848;48.354;10.064;2023-05-29T09:31:57;9.13;;;4.17;;
1701;SDS011;848;48.354;10.064;2023-05-29T09:34:25;9.60;;;3.97;;
1701;SDS011;848;48.354;10.064;2023-05-29T09:36:52;11.37;;;4.90;;
1701;SDS011;848;48.354;10.064;2023-05-29T09:39:21;10.80;;;4.83;;
1701;SDS011;848;48.354;10.064;2023-05-29T09:41:48;9.40;;;4.00;;
1701;SDS011;848;48.354;10.064;2023-05-29T09:44:17;11.03;;;4.80;;
1701;SDS011;848;48.354;10.064;2023-05-29T09:46:45;9.10;;;4.00;;
1701;SDS011;848;48.354;10.064;2023-05-29T09:49:15;13.80;;;4.10;;
1701;SDS011;848;48.354;10.064;2023-05-29T09:51:42;11.53;;;4.60;;
1701;SDS011;848;48.354;10.064;2023-05-29T09:54:13;9.27;;;4.10;;
1701;SDS011;848;48.354;10.064;2023-05-29T09:56:42;11.17;;;4.70;;
1701;SDS011;848;48.354;10.064;2023-05-29T09:59:10;8.23;;;3.17;;
1701;SDS011;848;48.354;10.064;2023-05-29T10:01:40;11.00;;;4.63;;
1701;SDS011;848;48.354;10.064;2023-05-29T10:04:09;10.30;;;3.90;;
1701;SDS011;848;48.354;10.064;2023-05-29T10:06:37;11.90;;;4.40;;
1701;SDS011;848;48.354;10.064;2023-05-29T10:09:05;10.67;;;4.13;;
1701;SDS011;848;48.354;10.064;2023-05-29T10:11:35;8.93;;;3.20;;
1701;SDS011;848;48.354;10.064;2023-05-29T10:14:03;8.60;;;3.90;;
1701;SDS011;848;48.354;10.064;2023-05-29T10:16:33;9.30;;;3.97;;
1701;SDS011;848;48.354;10.064;2023-05-29T10:19:06;8.63;;;4.00;;
1701;SDS011;848;48.354;10.064;2023-05-29T10:21:39;9.90;;;3.97;;
1701;SDS011;848;48.354;10.064;2023-05-29T10:24:07;8.20;;;3.40;;
1701;SDS011;848;48.354;10.064;2023-05-29T10:26:38;8.80;;;4.10;;
1701;SDS011;848;48.354;10.064;2023-05-29T10:29:08;8.43;;;3.37;;
1701;SDS011;848;48.354;10.064;2023-05-29T10:31:43;8.33;;;3.07;;
1701;SDS011;848;48.354;10.064;2023-05-29T10:34:20;11.20;;;3.60;;
1701;SDS011;848;48.354;10.064;2023-05-29T10:36:56;10.57;;;4.00;;
1701;SDS011;848;48.354;10.064;2023-05-29T10:39:31;8.30;;;2.73;;
1701;SDS011;848;48.354;10.064;2023-05-29T10:41:58;10.43;;;4.05;;
1701;SDS011;848;48.354;10.064;2023-05-29T10:44:39;11.73;;;3.25;;
1701;SDS011;848;48.354;10.064;2023-05-29T10:47:07;7.80;;;3.13;;
1701;SDS011;848;48.354;10.064;2023-05-29T10:49:37;7.77;;;3.10;;
1701;SDS011;848;48.354;10.064;2023-05-29T10:52:05;8.45;;;2.55;;
1701;SDS011;848;48.354;10.064;2023-05-29T10:54:52;7.40;;;3.00;;
1701;SDS011;848;48.354;10.064;2023-05-29T10:57:21;7.07;;;2.80;;
1701;SDS011;848;48.354;10.064;2023-05-29T10:59:57;8.37;;;2.30;;
1701;SDS011;848;48.354;10.064;2023-05-29T11:02:25;10.00;;;3.40;;
1701;SDS011;848;48.354;10.064;2023-05-29T11:05:07;8.30;;;3.00;;
1701;SDS011;848;48.354;10.064;2023-05-29T11:07:52;9.48;;;2.95;;
1701;SDS011;848;48.354;10.064;2023-05-29T11:13:25;9.20;;;2.80;;
1701;SDS011;848;48.354;10.064;2023-05-29T11:16:09;20.33;;;4.00;;
1701;SDS011;848;48.354;10.064;2023-05-29T11:18:43;8.45;;;3.47;;
1701;SDS011;848;48.354;10.064;2023-05-29T11:21:20;8.48;;;3.10;;
1701;SDS011;848;48.354;10.064;2023-05-29T11:23:50;8.60;;;3.17;;
1701;SDS011;848;48.354;10.064;2023-05-29T11:26:19;7.30;;;3.00;;
1701;SDS011;848;48.354;10.064;2023-05-29T11:28:46;7.30;;;2.60;;
1701;SDS011;848;48.354;10.064;2023-05-29T11:31:14;11.20;;;3.10;;
1701;SDS011;848;48.354;10.064;2023-05-29T11:33:46;7.88;;;3.17;;
1701;SDS011;848;48.354;10.064;2023-05-29T11:36:16;8.70;;;2.28;;
1701;SDS011;848;48.354;10.064;2023-05-29T11:38:44;7.33;;;2.80;;
1701;SDS011;848;48.354;10.064;2023-05-29T11:41:11;7.47;;;2.77;;
1701;SDS011;848;48.354;10.064;2023-05-29T11:43:38;6.60;;;2.60;;
1701;SDS011;848;48.354;10.064;2023-05-29T11:46:15;7.63;;;3.10;;
1701;SDS011;848;48.354;10.064;2023-05-29T11:48:46;8.90;;;2.40;;
1701;SDS011;848;48.354;10.064;2023-05-29T11:51:15;8.30;;;2.80;;
1701;SDS011;848;48.354;10.064;2023-05-29T11:53:43;10.17;;;2.67;;
1701;SDS011;848;48.354;10.064;2023-05-29T11:56:13;6.85;;;2.45;;
1701;SDS011;848;48.354;10.064;2023-05-29T11:58:41;8.27;;;1.90;;
1701;SDS011;848;48.354;10.064;2023-05-29T12:01:09;10.00;;;3.05;;
1701;SDS011;848;48.354;10.064;2023-05-29T12:03:39;9.38;;;3.00;;
1701;SDS011;848;48.354;10.064;2023-05-29T12:06:08;8.07;;;3.03;;
1701;SDS011;848;48.354;10.064;2023-05-29T12:08:39;7.55;;;2.85;;
1701;SDS011;848;48.354;10.064;2023-05-29T12:11:06;11.40;;;3.65;;
1701;SDS011;848;48.354;10.064;2023-05-29T12:13:34;7.90;;;2.40;;
1701;SDS011;848;48.354;10.064;2023-05-29T12:16:02;6.60;;;2.03;;
1701;SDS011;848;48.354;10.064;2023-05-29T12:18:31;8.45;;;2.25;;
1701;SDS011;848;48.354;10.064;2023-05-29T12:20:59;7.55;;;2.30;;
1701;SDS011;848;48.354;10.064;2023-05-29T12:23:27;7.85;;;2.67;;
1701;SDS011;848;48.354;10.064;2023-05-29T12:25:56;7.63;;;2.55;;
1701;SDS011;848;48.354;10.064;2023-05-29T12:28:27;14.10;;;5.75;;
1701;SDS011;848;48.354;10.064;2023-05-29T12:30:57;10.82;;;3.08;;
1701;SDS011;848;48.354;10.064;2023-05-29T12:33:28;9.40;;;3.13;;
1701;SDS011;848;48.354;10.064;2023-05-29T12:36:03;8.00;;;3.28;;
1701;SDS011;848;48.354;10.064;2023-05-29T12:38:31;6.50;;;2.53;;
1701;SDS011;848;48.354;10.064;2023-05-29T12:41:00;7.80;;;2.40;;
1701;SDS011;848;48.354;10.064;2023-05-29T12:43:27;9.50;;;3.03;;
1701;SDS011;848;48.354;10.064;2023-05-29T12:45:54;7.30;;;2.30;;
1701;SDS011;848;48.354;10.064;2023-05-29T12:48:25;6.75;;;2.42;;
1701;SDS011;848;48.354;10.064;2023-05-29T12:50:53;8.55;;;2.40;;
1701;SDS011;848;48.354;10.064;2023-05-29T12:53:21;8.07;;;2.37;;
1701;SDS011;848;48.354;10.064;2023-05-29T12:55:48;7.53;;;2.93;;
1701;SDS011;848;48.354;10.064;2023-05-29T12:58:16;6.57;;;1.95;;
1701;SDS011;848;48.354;10.064;2023-05-29T13:00:44;7.60;;;2.50;;
1701;SDS011;848;48.354;10.064;2023-05-29T13:03:11;7.15;;;2.78;;
1701;SDS011;848;48.354;10.064;2023-05-29T13:05:39;7.45;;;2.80;;
1701;SDS011;848;48.354;10.064;2023-05-29T13:10:18;9.97;;;2.87;;
1701;SDS011;848;48.354;10.064;2023-05-29T13:12:46;8.73;;;3.05;;
1701;SDS011;848;48.354;10.064;2023-05-29T13:15:18;6.95;;;2.72;;
1701;SDS011;848;48.354;10.064;2023-05-29T13:17:46;6.95;;;2.40;;
1701;SDS011;848;48.354;10.064;2023-05-29T13:20:13;9.93;;;3.15;;
1701;SDS011;848;48.354;10.064;2023-05-29T13:22:41;9.93;;;3.97;;
1701;SDS011;848;48.354;10.064;2023-05-29T13:25:10;7.30;;;2.60;;
1701;SDS011;848;48.354;10.064;2023-05-29T13:27:40;7.95;;;3.05;;
1701;SDS011;848;48.354;10.064;2023-05-29T13:30:09;7.45;;;2.78;;
1701;SDS011;848;48.354;10.064;2023-05-29T13:32:37;7.05;;;2.75;;
1701;SDS011;848;48.354;10.064;2023-05-29T13:35:05;7.88;;;3.22;;
1701;SDS011;848;48.354;10.064;2023-05-29T13:37:32;7.57;;;3.13;;
1701;SDS011;848;48.354;10.064;2023-05-29T13:39:59;8.75;;;3.60;;
1701;SDS011;848;48.354;10.064;2023-05-29T13:42:26;8.93;;;3.10;;
1701;SDS011;848;48.354;10.064;2023-05-29T13:44:54;8.77;;;2.97;;
1701;SDS011;848;48.354;10.064;2023-05-29T13:47:21;8.85;;;3.10;;
1701;SDS011;848;48.354;10.064;2023-05-29T13:49:48;8.65;;;2.78;;
1701;SDS011;848;48.354;10.064;2023-05-29T13:52:15;7.88;;;2.67;;
1701;SDS011;848;48.354;10.064;2023-05-29T13:54:42;7.30;;;2.90;;
1701;SDS011;848;48.354;10.064;2023-05-29T13:57:09;7.30;;;2.80;;
1701;SDS011;848;48.354;10.064;2023-05-29T13:59:36;8.00;;;2.75;;
1701;SDS011;848;48.354;10.064;2023-05-29T14:02:05;9.90;;;3.78;;
1701;SDS011;848;48.354;10.064;2023-05-29T14:04:33;7.65;;;2.90;;
1701;SDS011;848;48.354;10.064;2023-05-29T14:07:00;9.57;;;3.22;;
1701;SDS011;848;48.354;10.064;2023-05-29T14:09:28;8.20;;;3.53;;
1701;SDS011;848;48.354;10.064;2023-05-29T14:11:57;8.15;;;3.15;;
1701;SDS011;848;48.354;10.064;2023-05-29T14:14:26;10.85;;;3.50;;
1701;SDS011;848;48.354;10.064;2023-05-29T14:16:53;8.52;;;3.30;;
1701;SDS011;848;48.354;10.064;2023-05-29T14:19:22;7.55;;;3.08;;
1701;SDS011;848;48.354;10.064;2023-05-29T14:21:50;7.20;;;2.92;;
1701;SDS011;848;48.354;10.064;2023-05-29T14:24:17;7.70;;;3.20;;
1701;SDS011;848;48.354;10.064;2023-05-29T14:26:44;7.38;;;2.70;;
1701;SDS011;848;48.354;10.064;2023-05-29T14:29:12;9.90;;;3.83;;
1701;SDS011;848;48.354;10.064;2023-05-29T14:31:40;8.93;;;3.75;;
1701;SDS011;848;48.354;10.064;2023-05-29T14:34:07;7.60;;;3.33;;
1701;SDS011;848;48.354;10.064;2023-05-29T14:36:35;8.95;;;3.45;;
1701;SDS011;848;48.354;10.064;2023-05-29T14:39:03;7.50;;;3.23;;
1701;SDS011;848;48.354;10.064;2023-05-29T14:41:30;8.05;;;2.90;;
1701;SDS011;848;48.354;10.064;2023-05-29T14:43:58;7.30;;;2.70;;
1701;SDS011;848;48.354;10.064;2023-05-29T14:46:25;9.55;;;3.70;;
1701;SDS011;848;48.354;10.064;2023-05-29T14:48:56;9.15;;;3.10;;
1701;SDS011;848;48.354;10.064;2023-05-29T14:51:23;7.85;;;2.80;;
1701;SDS011;848;48.354;10.064;2023-05-29T14:53:51;7.80;;;2.53;;
1701;SDS011;848;48.354;10.064;2023-05-29T14:56:18;10.85;;;3.25;;
1701;SDS011;848;48.354;10.064;2023-05-29T14:58:45;9.00;;;3.47;;
1701;SDS011;848;48.354;10.064;2023-05-29T15:01:13;9.32;;;3.50;;
1701;SDS011;848;48.354;10.064;2023-05-29T15:03:40;8.25;;;2.95;;
1701;SDS011;848;48.354;10.064;2023-05-29T15:06:08;8.32;;;2.92;;
1701;SDS011;848;48.354;10.064;2023-05-29T15:08:36;7.95;;;3.10;;
1701;SDS011;848;48.354;10.064;2023-05-29T15:11:06;8.10;;;2.88;;
1701;SDS011;848;48.354;10.064;2023-05-29T15:13:34;8.30;;;3.30;;
1701;SDS011;848;48.354;10.064;2023-05-29T15:16:01;9.88;;;3.60;;
1701;SDS011;848;48.354;10.064;2023-05-29T15:18:28;9.17;;;2.63;;
1701;SDS011;848;48.354;10.064;2023-05-29T15:20:55;8.40;;;2.80;;